Time;durP1;ratioP1;P1;durP2;ratioP2;P2;SDS_P1;SDS_P2;PMS_P1;PMS_P2;Temp;Humidity;BMP_temperature;BMP_pressure;BME280_temperature;BME280_humidity;BME280_pressure;Samples;Min_cycle;Max_cycle;Signal;HPM_P1;HPM_P2
2021/12/30 00:01:53;;;;;;;340.90;55.38;;;;;;;2.26;97.84;100070.00;5087018;28;20425;-84
2021/12/30 00:04:24;;;;;;;332.60;49.85;;;;;;;2.26;98.62;100070.81;5068841;28;20058;-83
2021/12/30 00:06:50;;;;;;;194.65;33.95;;;;;;;2.27;98.11;100064.41;5073868;28;20022;-84
2021/12/30 00:09:15;;;;;;;299.27;45.00;;;;;;;2.28;98.41;100063.34;5087654;28;20428;-84
2021/12/30 00:11:41;;;;;;;218.07;38.08;;;;;;;2.30;98.61;100061.25;5091852;28;20080;-83
2021/12/30 00:14:07;;;;;;;315.50;47.55;;;;;;;2.31;98.01;100052.09;5074072;28;20465;-83
2021/12/30 00:16:32;;;;;;;234.07;38.35;;;;;;;2.35;98.27;100047.09;5070905;28;20433;-84
2021/12/30 00:18:58;;;;;;;325.40;47.45;;;;;;;2.37;98.62;100050.34;5088775;28;20024;-83
2021/12/30 00:21:23;;;;;;;182.77;34.35;;;;;;;2.40;98.79;100049.84;5055821;28;20086;-83
2021/12/30 00:23:49;;;;;;;193.68;32.53;;;;;;;2.44;99.25;100034.88;5088449;28;20028;-83
2021/12/30 00:26:15;;;;;;;267.05;37.30;;;;;;;2.44;99.17;100019.56;5086584;28;20491;-83
2021/12/30 00:28:40;;;;;;;391.13;54.63;;;;;;;2.48;99.60;100014.50;5073083;28;20024;-85
2021/12/30 00:31:06;;;;;;;314.83;45.83;;;;;;;2.50;99.71;100001.63;5083893;28;20016;-84
2021/12/30 00:33:34;;;;;;;265.52;39.80;;;;;;;2.52;99.52;100015.69;5074297;28;20066;-84
2021/12/30 00:36:02;;;;;;;362.48;50.20;;;;;;;2.52;99.41;100023.75;5072936;28;20030;-83
2021/12/30 00:38:27;;;;;;;387.00;52.30;;;;;;;2.55;99.33;100025.16;5072581;28;20050;-83
2021/12/30 00:40:52;;;;;;;252.13;37.08;;;;;;;2.56;99.65;100024.09;5066980;28;20501;-85
2021/12/30 00:43:18;;;;;;;326.55;47.95;;;;;;;2.57;99.79;100040.00;5092225;28;20080;-83
2021/12/30 00:45:43;;;;;;;312.02;48.08;;;;;;;2.58;99.99;100047.00;5092315;28;20408;-83
2021/12/30 00:48:09;;;;;;;173.82;27.88;;;;;;;2.59;99.64;100034.38;5090172;28;20085;-84
2021/12/30 00:50:36;;;;;;;249.15;39.97;;;;;;;2.59;99.74;100028.97;5092244;28;20024;-83
2021/12/30 00:53:02;;;;;;;291.05;48.33;;;;;;;2.58;100.00;100025.47;5091192;28;20076;-84
2021/12/30 00:55:27;;;;;;;301.65;48.03;;;;;;;2.58;99.90;100014.72;5075331;28;20176;-84
2021/12/30 00:57:53;;;;;;;242.98;38.63;;;;;;;2.61;100.00;100011.53;5089752;28;20227;-85
2021/12/30 01:00:19;;;;;;;166.55;32.45;;;;;;;2.62;99.80;100001.63;5072946;28;20032;-84
2021/12/30 01:02:44;;;;;;;220.07;41.88;;;;;;;2.63;100.00;100009.44;5086298;28;20384;-84
2021/12/30 01:05:10;;;;;;;188.15;40.67;;;;;;;2.64;100.00;99996.78;5090774;28;20032;-84
2021/12/30 01:07:35;;;;;;;154.30;39.53;;;;;;;2.67;100.00;99999.00;5075654;28;20362;-84
2021/12/30 01:10:01;;;;;;;155.32;36.58;;;;;;;2.70;100.00;100003.09;5075588;28;20020;-83
2021/12/30 01:12:27;;;;;;;158.55;43.60;;;;;;;2.72;100.00;99999.09;5092299;28;20076;-85
2021/12/30 01:14:53;;;;;;;113.90;34.85;;;;;;;2.74;100.00;99990.78;5092601;28;20108;-85
2021/12/30 01:17:39;;;;;;;140.88;35.78;;;;;;;2.77;100.00;100001.06;5039204;28;20028;-83
2021/12/30 01:20:05;;;;;;;122.15;34.60;;;;;;;2.77;100.00;99974.97;5069372;28;20024;-84
2021/12/30 01:22:33;;;;;;;126.78;37.08;;;;;;;2.79;100.00;99963.97;5086408;28;20028;-83
2021/12/30 01:24:58;;;;;;;108.05;33.10;;;;;;;2.80;100.00;99968.28;5049556;28;20020;-84
2021/12/30 01:27:24;;;;;;;164.40;46.08;;;;;;;2.82;100.00;99955.41;5090290;28;20576;-83
2021/12/30 01:29:49;;;;;;;136.65;41.33;;;;;;;2.82;100.00;99966.16;5076503;28;20032;-82
2021/12/30 01:32:15;;;;;;;165.45;48.17;;;;;;;2.83;100.00;99962.41;5060373;28;20016;-82
2021/12/30 01:34:40;;;;;;;142.90;42.00;;;;;;;2.83;100.00;99943.56;5082522;28;20112;-81
2021/12/30 01:37:06;;;;;;;190.48;51.88;;;;;;;2.83;100.00;99952.44;5081429;28;20457;-82
2021/12/30 01:39:33;;;;;;;163.85;46.03;;;;;;;2.85;100.00;99949.53;5053440;28;20037;-82
2021/12/30 01:41:59;;;;;;;156.23;43.88;;;;;;;2.84;100.00;99951.41;5067800;28;20046;-82
2021/12/30 01:44:28;;;;;;;165.73;45.67;;;;;;;2.85;100.00;99944.97;5090230;28;20468;-83
2021/12/30 01:46:53;;;;;;;139.32;41.95;;;;;;;2.87;100.00;99944.72;5075138;28;20036;-82
2021/12/30 01:49:19;;;;;;;141.55;42.92;;;;;;;2.87;100.00;99942.03;5055437;28;22061;-83
2021/12/30 01:51:44;;;;;;;154.45;45.38;;;;;;;2.89;100.00;99912.97;5092459;28;20027;-82
2021/12/30 01:54:10;;;;;;;120.22;36.42;;;;;;;2.89;100.00;99924.59;5091245;28;20430;-82
2021/12/30 01:56:35;;;;;;;121.65;38.88;;;;;;;2.90;100.00;99920.00;5092951;28;20032;-82
2021/12/30 01:59:02;;;;;;;125.30;39.33;;;;;;;2.93;100.00;99907.94;5071795;28;20032;-81
2021/12/30 02:01:27;;;;;;;96.60;33.28;;;;;;;2.94;100.00;99915.75;5053969;28;20032;-82
2021/12/30 02:03:53;;;;;;;149.93;46.03;;;;;;;2.93;100.00;99908.75;5066526;28;20036;-82
2021/12/30 02:06:18;;;;;;;146.25;43.40;;;;;;;2.93;100.00;99916.81;5090504;28;20128;-82
2021/12/30 02:08:44;;;;;;;139.45;42.80;;;;;;;2.93;100.00;99900.69;5090765;28;20077;-83
2021/12/30 02:11:09;;;;;;;127.68;36.45;;;;;;;2.93;100.00;99897.97;5091983;28;20027;-82
2021/12/30 02:13:34;;;;;;;147.82;42.58;;;;;;;2.93;100.00;99891.78;5073003;28;20034;-82
2021/12/30 02:16:02;;;;;;;134.27;39.45;;;;;;;2.93;100.00;99891.78;5090100;28;20024;-82
2021/12/30 02:18:29;;;;;;;103.05;32.90;;;;;;;2.96;100.00;99902.88;5071775;28;20020;-82
2021/12/30 02:20:56;;;;;;;98.97;33.42;;;;;;;2.95;100.00;99890.47;5091146;28;20020;-82
2021/12/30 02:23:28;;;;;;;92.28;28.63;;;;;;;2.95;100.00;99903.94;5056325;28;20111;-83
2021/12/30 02:25:55;;;;;;;67.60;23.27;;;;;;;2.96;100.00;99908.25;5087716;28;20047;-82
2021/12/30 02:28:23;;;;;;;95.07;29.05;;;;;;;2.96;100.00;99902.06;5073446;28;20031;-82
2021/12/30 02:30:49;;;;;;;107.28;27.83;;;;;;;2.94;100.00;99894.22;5089456;28;20103;-82
2021/12/30 02:33:14;;;;;;;104.20;32.85;;;;;;;2.96;100.00;99896.69;5066683;28;20489;-82
2021/12/30 02:35:40;;;;;;;108.78;30.88;;;;;;;2.95;100.00;99898.56;5069197;28;20020;-82
2021/12/30 02:38:05;;;;;;;90.97;26.77;;;;;;;2.93;100.00;99876.44;5091683;28;20030;-82
2021/12/30 02:40:37;;;;;;;91.70;31.77;;;;;;;2.94;100.00;99872.69;5090994;28;20073;-82
2021/12/30 02:43:05;;;;;;;80.18;25.70;;;;;;;2.94;100.00;99861.91;5091656;28;20055;-82
2021/12/30 02:45:31;;;;;;;84.95;27.17;;;;;;;2.93;100.00;99854.91;5088622;28;20032;-82
2021/12/30 02:47:56;;;;;;;73.85;22.17;;;;;;;2.93;100.00;99843.34;5090490;28;20030;-82
2021/12/30 02:50:21;;;;;;;86.28;27.60;;;;;;;2.93;100.00;99844.13;5084006;28;20016;-82
2021/12/30 02:52:48;;;;;;;51.03;19.08;;;;;;;2.94;100.00;99845.75;5092891;28;20035;-82
2021/12/30 02:55:13;;;;;;;27.25;13.07;;;;;;;2.95;100.00;99847.41;5080348;28;20031;-82
2021/12/30 02:57:39;;;;;;;74.88;22.63;;;;;;;2.94;100.00;99835.00;5069740;28;20044;-82
2021/12/30 03:00:06;;;;;;;72.97;23.02;;;;;;;2.96;100.00;99845.53;5095352;28;20028;-81
2021/12/30 03:02:34;;;;;;;34.05;13.40;;;;;;;2.96;100.00;99832.88;5054087;28;20056;-82
2021/12/30 03:05:01;;;;;;;58.83;17.98;;;;;;;2.96;100.00;99854.41;5090639;28;20078;-83
2021/12/30 03:07:28;;;;;;;30.35;13.00;;;;;;;2.97;100.00;99845.25;5094760;28;20270;-82
2021/12/30 03:09:54;;;;;;;49.88;18.38;;;;;;;2.97;100.00;99839.06;5088576;28;20495;-82
2021/12/30 03:12:19;;;;;;;39.92;15.48;;;;;;;2.97;100.00;99826.41;5078474;28;20024;-82
2021/12/30 03:14:44;;;;;;;47.42;16.25;;;;;;;2.98;100.00;99824.56;5090813;28;20039;-82
2021/12/30 03:17:11;;;;;;;39.45;14.25;;;;;;;2.99;100.00;99827.00;5092942;28;20043;-82
2021/12/30 03:19:36;;;;;;;45.53;15.75;;;;;;;3.01;100.00;99819.50;5068299;28;20426;-83
2021/12/30 03:22:02;;;;;;;73.47;21.73;;;;;;;3.03;100.00;99812.00;5096071;28;20028;-83
2021/12/30 03:24:27;;;;;;;50.08;18.08;;;;;;;3.05;100.00;99809.84;5088367;28;20027;-82
2021/12/30 03:26:52;;;;;;;40.22;14.23;;;;;;;3.07;100.00;99813.09;5056499;28;20031;-82
2021/12/30 03:29:18;;;;;;;47.88;16.65;;;;;;;3.13;100.00;99788.94;5075853;28;20077;-82
2021/12/30 03:31:43;;;;;;;33.53;13.82;;;;;;;3.16;100.00;99805.41;5093584;28;20047;-82
2021/12/30 03:34:09;;;;;;;23.50;8.90;;;;;;;3.18;100.00;99797.91;5093259;28;20078;-83
2021/12/30 03:36:34;;;;;;;54.15;17.63;;;;;;;3.19;100.00;99783.38;5056808;28;20028;-82
2021/12/30 03:39:01;;;;;;;33.67;12.68;;;;;;;3.21;100.00;99791.19;5090905;28;20035;-82
2021/12/30 03:41:27;;;;;;;34.10;14.10;;;;;;;3.22;100.00;99782.06;5075157;28;20107;-83
2021/12/30 03:43:53;;;;;;;26.40;10.32;;;;;;;3.24;100.00;99775.34;5089252;28;20411;-83
2021/12/30 03:46:18;;;;;;;27.50;9.93;;;;;;;3.28;100.00;99786.47;5087599;28;20024;-82
2021/12/30 03:48:44;;;;;;;31.40;12.50;;;;;;;3.29;100.00;99772.72;5092560;28;20035;-82
2021/12/30 03:51:20;;;;;;;19.90;8.77;;;;;;;3.32;100.00;99766.03;5071649;28;20085;-83
2021/12/30 03:53:49;;;;;;;21.73;10.65;;;;;;;3.35;100.00;99773.59;5076735;28;20102;-83
2021/12/30 03:56:14;;;;;;;15.95;7.53;;;;;;;3.37;100.00;99763.41;5092824;28;20062;-83
2021/12/30 03:58:41;;;;;;;24.05;9.10;;;;;;;3.38;100.00;99767.72;5092984;28;20075;-82
2021/12/30 04:01:07;;;;;;;15.80;6.85;;;;;;;3.39;100.00;99758.56;5089583;28;20024;-83
2021/12/30 04:03:33;;;;;;;11.90;7.15;;;;;;;3.41;100.00;99769.09;5056750;28;20040;-83
2021/12/30 04:06:00;;;;;;;21.80;7.93;;;;;;;3.43;100.00;99748.91;5087784;28;20031;-83
2021/12/30 04:08:25;;;;;;;26.42;10.98;;;;;;;3.45;100.00;99754.06;5074723;28;20032;-83
2021/12/30 04:10:51;;;;;;;25.30;8.13;;;;;;;3.46;100.00;99739.50;5074901;28;20035;-82
2021/12/30 04:13:16;;;;;;;23.95;9.77;;;;;;;3.48;100.00;99750.84;5074808;28;20322;-83
2021/12/30 04:15:42;;;;;;;20.00;7.25;;;;;;;3.53;100.00;99754.41;5073172;28;20035;-83
2021/12/30 04:18:07;;;;;;;15.55;6.68;;;;;;;3.56;100.00;99751.22;5085782;28;20032;-83
2021/12/30 04:20:32;;;;;;;13.70;6.05;;;;;;;3.60;100.00;99742.63;5091111;28;20061;-83
2021/12/30 04:22:59;;;;;;;22.52;7.93;;;;;;;3.62;100.00;99721.63;5092302;28;20028;-83
2021/12/30 04:25:25;;;;;;;18.10;8.30;;;;;;;3.63;100.00;99734.03;5090321;28;20040;-84
2021/12/30 04:27:50;;;;;;;16.50;7.43;;;;;;;3.65;100.00;99732.72;5090055;28;20020;-83
2021/12/30 04:30:16;;;;;;;15.68;6.32;;;;;;;3.70;100.00;99723.88;5068886;28;20016;-83
2021/12/30 04:32:41;;;;;;;23.33;8.68;;;;;;;3.74;100.00;99719.63;5083501;28;20126;-84
2021/12/30 04:35:07;;;;;;;24.15;10.60;;;;;;;3.76;100.00;99728.25;5087098;28;20370;-83
2021/12/30 04:37:32;;;;;;;19.38;7.65;;;;;;;3.76;100.00;99720.16;5077791;28;20059;-84
2021/12/30 04:39:58;;;;;;;15.80;6.13;;;;;;;3.76;100.00;99728.25;5092204;28;20043;-84
2021/12/30 04:42:24;;;;;;;25.55;8.82;;;;;;;3.77;100.00;99714.50;5075887;28;20039;-85
2021/12/30 04:44:49;;;;;;;20.30;7.68;;;;;;;3.77;100.00;99721.78;5088278;28;20032;-84
2021/12/30 04:47:15;;;;;;;27.70;9.60;;;;;;;3.78;100.00;99721.53;5075759;28;20024;-84
2021/12/30 04:49:41;;;;;;;25.23;9.73;;;;;;;3.80;100.00;99721.28;5074784;28;20030;-84
2021/12/30 04:52:06;;;;;;;19.83;7.68;;;;;;;3.80;100.00;99729.38;5095073;28;20012;-86
2021/12/30 04:54:32;;;;;;;23.83;9.40;;;;;;;3.83;100.00;99707.28;5074154;28;20416;-85
2021/12/30 04:56:57;;;;;;;19.67;9.30;;;;;;;3.84;100.00;99713.47;5087298;28;20055;-84
2021/12/30 04:59:22;;;;;;;23.70;8.73;;;;;;;3.84;100.00;99733.16;5073207;28;20024;-86
2021/12/30 05:01:48;;;;;;;38.97;9.60;;;;;;;3.85;100.00;99715.13;5089299;28;20040;-85
2021/12/30 05:04:13;;;;;;;40.15;13.70;;;;;;;3.84;100.00;99719.69;5062547;28;20110;-86
2021/12/30 05:06:39;;;;;;;29.65;11.93;;;;;;;3.86;100.00;99717.56;5091173;28;20028;-86
2021/12/30 05:09:08;;;;;;;33.67;12.15;;;;;;;3.87;100.00;99723.75;5088874;28;20024;-84
2021/12/30 05:11:34;;;;;;;26.75;10.65;;;;;;;3.89;100.00;99725.13;5051494;28;20350;-86
2021/12/30 05:13:59;;;;;;;31.30;10.48;;;;;;;3.90;100.00;99705.22;5089820;28;20020;-84
2021/12/30 05:16:25;;;;;;;37.33;12.15;;;;;;;3.93;100.00;99707.38;5071765;28;20024;-86
2021/12/30 05:18:56;;;;;;;41.38;14.00;;;;;;;3.94;100.00;99718.97;5084023;28;20060;-85
2021/12/30 05:21:21;;;;;;;38.65;12.77;;;;;;;3.95;100.00;99699.84;5070376;28;20077;-84
2021/12/30 05:23:47;;;;;;;38.03;11.60;;;;;;;3.98;100.00;99710.13;5035358;28;20496;-85
2021/12/30 05:26:15;;;;;;;42.22;12.25;;;;;;;4.03;100.00;99701.25;5088700;28;20491;-83
2021/12/30 05:28:40;;;;;;;35.65;11.77;;;;;;;4.07;100.00;99706.97;5073838;28;20054;-83
2021/12/30 05:31:05;;;;;;;41.97;14.35;;;;;;;4.08;100.00;99697.78;5081169;28;20485;-84
2021/12/30 05:33:31;;;;;;;36.65;12.68;;;;;;;4.10;100.00;99703.75;5088142;28;20028;-86
2021/12/30 05:35:56;;;;;;;42.78;14.48;;;;;;;4.14;100.00;99710.25;5069974;28;20024;-84
2021/12/30 05:38:22;;;;;;;46.47;15.75;;;;;;;4.20;100.00;99711.91;5091308;28;20023;-84
2021/12/30 05:40:47;;;;;;;41.92;13.18;;;;;;;4.27;100.00;99684.72;5092838;28;20024;-85
2021/12/30 05:43:12;;;;;;;46.88;13.82;;;;;;;4.29;100.00;99683.38;5091579;28;20024;-85
2021/12/30 05:45:38;;;;;;;42.47;12.43;;;;;;;4.31;100.00;99683.94;5084410;28;20085;-85
2021/12/30 05:48:04;;;;;;;49.58;13.52;;;;;;;4.32;100.00;99682.06;5090120;28;20116;-85
2021/12/30 05:50:31;;;;;;;50.42;15.07;;;;;;;4.33;100.00;99694.47;5084410;28;20027;-87
2021/12/30 05:52:56;;;;;;;41.30;11.18;;;;;;;4.36;100.00;99705.53;5091978;28;20496;-86
2021/12/30 05:55:22;;;;;;;62.55;16.60;;;;;;;4.39;100.00;99705.06;5072782;28;20028;-85
2021/12/30 05:57:50;;;;;;;46.08;13.75;;;;;;;4.40;100.00;99697.75;5073040;28;20052;-84
2021/12/30 06:00:17;;;;;;;55.40;14.38;;;;;;;4.42;100.00;99695.63;5067103;28;20074;-85
2021/12/30 06:02:42;;;;;;;48.45;11.05;;;;;;;4.45;100.00;99695.09;5089457;28;20047;-87
2021/12/30 06:05:08;;;;;;;55.67;16.25;;;;;;;4.50;100.00;99699.69;5083402;28;20024;-85
2021/12/30 06:07:33;;;;;;;48.15;12.38;;;;;;;4.56;100.00;99698.69;5089089;28;20505;-87
2021/12/30 06:09:59;;;;;;;55.30;13.77;;;;;;;4.60;100.00;99705.97;5055715;28;20047;-86
2021/12/30 06:12:24;;;;;;;61.90;13.88;;;;;;;4.65;100.00;99705.19;5073890;28;20032;-85
2021/12/30 06:14:50;;;;;;;52.78;13.70;;;;;;;4.68;100.00;99699.28;5066993;28;20392;-86
2021/12/30 06:17:18;;;;;;;60.85;13.32;;;;;;;4.71;100.00;99696.06;5090537;28;20461;-86
2021/12/30 06:19:44;;;;;;;66.63;13.05;;;;;;;4.74;100.00;99692.81;5070068;28;20032;-86
2021/12/30 06:22:14;;;;;;;43.95;11.15;;;;;;;4.76;100.00;99706.88;5089097;28;20028;-87
2021/12/30 06:24:40;;;;;;;66.00;11.68;;;;;;;4.79;100.00;99703.66;5084592;28;20047;-86
2021/12/30 06:27:05;;;;;;;35.70;11.35;;;;;;;4.82;100.00;99703.13;5080750;28;20469;-87
2021/12/30 06:29:30;;;;;;;67.90;14.63;;;;;;;4.83;100.00;99704.78;5093540;28;20035;-85
2021/12/30 06:31:56;;;;;;;44.92;11.77;;;;;;;4.86;100.00;99716.94;5091186;28;20024;-85
2021/12/30 06:34:23;;;;;;;53.33;12.45;;;;;;;4.86;100.00;99709.63;5080855;28;20032;-87
2021/12/30 06:36:48;;;;;;;61.80;13.32;;;;;;;4.87;100.00;99719.34;5070983;28;20036;-88
2021/12/30 06:39:14;;;;;;;60.75;12.05;;;;;;;4.88;100.00;99718.31;5089921;28;20087;-87
2021/12/30 06:41:39;;;;;;;61.53;11.95;;;;;;;4.89;100.00;99728.00;5071185;28;20027;-86
2021/12/30 06:44:04;;;;;;;60.58;12.73;;;;;;;4.90;100.00;99721.53;5088167;28;20050;-85
2021/12/30 06:46:30;;;;;;;62.15;14.13;;;;;;;4.92;100.00;99712.38;5070696;28;20028;-85
2021/12/30 06:48:56;;;;;;;67.55;12.85;;;;;;;4.94;100.00;99711.03;5091547;28;20058;-85
2021/12/30 06:51:23;;;;;;;64.90;14.07;;;;;;;4.98;100.00;99711.31;5092067;28;20081;-87
2021/12/30 06:53:51;;;;;;;70.18;12.02;;;;;;;4.99;100.00;99707.53;5057337;28;20381;-88
2021/12/30 06:56:18;;;;;;;47.65;11.13;;;;;;;5.00;100.00;99711.88;5070156;28;20029;-86
2021/12/30 06:58:43;;;;;;;70.70;13.70;;;;;;;5.01;100.00;99722.38;5074868;28;20427;-86
2021/12/30 07:01:11;;;;;;;83.95;15.18;;;;;;;5.09;100.00;99737.28;5089537;28;20035;-84
2021/12/30 07:03:36;;;;;;;69.65;13.60;;;;;;;5.16;100.00;99740.56;5088454;28;20027;-85
2021/12/30 07:06:02;;;;;;;60.85;11.70;;;;;;;5.19;100.00;99745.44;5088953;28;20032;-88
2021/12/30 07:08:29;;;;;;;71.80;14.80;;;;;;;5.22;100.00;99744.91;5073191;28;20035;-89
2021/12/30 07:10:55;;;;;;;75.80;14.20;;;;;;;5.21;100.00;99748.72;5059791;28;20397;-87
2021/12/30 07:13:20;;;;;;;74.63;14.77;;;;;;;5.21;100.00;99754.09;5083618;28;20020;-87
2021/12/30 07:15:46;;;;;;;79.57;14.73;;;;;;;5.22;100.00;99755.72;5091338;28;20028;-87
2021/12/30 07:18:11;;;;;;;59.22;12.60;;;;;;;5.31;100.00;99758.72;5089048;28;20057;-88
2021/12/30 07:20:36;;;;;;;63.22;12.80;;;;;;;5.37;100.00;99767.66;5088919;28;20041;-85
2021/12/30 07:23:02;;;;;;;56.33;15.18;;;;;;;5.43;100.00;99766.59;5073127;28;20027;-88
2021/12/30 07:25:27;;;;;;;71.28;15.10;;;;;;;5.44;100.00;99773.66;5084252;28;20032;-87
2021/12/30 07:27:54;;;;;;;75.97;13.18;;;;;;;5.38;100.00;99780.13;5073467;28;20032;-91
2021/12/30 07:30:22;;;;;;;72.55;13.10;;;;;;;5.31;100.00;99774.94;5074188;28;20019;-88
2021/12/30 07:32:47;;;;;;;64.70;12.30;;;;;;;5.25;100.00;99782.22;5087730;28;20113;-88
2021/12/30 07:35:13;;;;;;;68.63;12.13;;;;;;;5.22;100.00;99777.34;5070111;28;20028;-87
2021/12/30 07:37:39;;;;;;;66.85;12.55;;;;;;;5.22;100.00;99769.25;5071513;28;20032;-89
2021/12/30 07:40:05;;;;;;;66.65;12.93;;;;;;;5.23;100.00;99770.03;5092232;28;20031;-89
2021/12/30 07:42:30;;;;;;;71.72;13.88;;;;;;;5.21;100.00;99777.59;5092821;28;20472;-86
2021/12/30 07:44:56;;;;;;;67.72;14.65;;;;;;;5.19;100.00;99777.88;5075520;28;20024;-87
2021/12/30 07:47:21;;;;;;;71.63;13.43;;;;;;;5.18;100.00;99770.81;5092672;28;20027;-78
2021/12/30 07:49:47;;;;;;;70.75;13.60;;;;;;;5.23;100.00;99772.75;5073142;28;20114;-84
2021/12/30 07:52:12;;;;;;;72.78;14.48;;;;;;;5.26;100.00;99778.44;5057349;28;20020;-86
2021/12/30 07:54:43;;;;;;;58.20;11.80;;;;;;;5.26;100.00;99789.22;5069743;28;20033;-86
2021/12/30 07:57:09;;;;;;;69.18;13.88;;;;;;;5.27;100.00;99780.06;5085215;28;20048;-84
2021/12/30 07:59:35;;;;;;;73.60;13.80;;;;;;;5.27;100.00;99774.66;5071648;28;20499;-86
2021/12/30 08:02:03;;;;;;;70.47;12.90;;;;;;;5.26;100.00;99783.03;5069681;28;20033;-87
2021/12/30 08:04:29;;;;;;;88.13;14.75;;;;;;;5.23;100.00;99784.34;5067781;28;20491;-85
2021/12/30 08:06:54;;;;;;;85.97;17.15;;;;;;;5.22;100.00;99782.75;5054890;28;20040;-87
2021/12/30 08:09:20;;;;;;;67.28;14.50;;;;;;;5.21;100.00;99789.25;5085998;28;20032;-86
2021/12/30 08:11:46;;;;;;;56.15;12.48;;;;;;;5.22;100.00;99769.25;5086245;28;20046;-86
2021/12/30 08:14:11;;;;;;;61.97;13.63;;;;;;;5.28;100.00;99778.97;5070258;28;20020;-87
2021/12/30 08:16:37;;;;;;;59.20;11.13;;;;;;;5.34;100.00;99796.03;5071457;28;20027;-86
2021/12/30 08:19:02;;;;;;;56.40;11.60;;;;;;;5.39;100.00;99789.84;5089753;28;20423;-88
2021/12/30 08:21:29;;;;;;;60.70;12.73;;;;;;;5.45;100.00;99791.47;5087724;28;20025;-88
2021/12/30 08:23:54;;;;;;;88.13;15.63;;;;;;;5.52;100.00;99782.06;5084849;28;20028;-87
2021/12/30 08:26:20;;;;;;;72.13;11.75;;;;;;;5.60;100.00;99782.63;5069821;28;20036;-86
2021/12/30 08:28:46;;;;;;;81.57;13.90;;;;;;;5.63;100.00;99765.88;5083215;28;20027;-89
2021/12/30 08:31:12;;;;;;;53.80;10.52;;;;;;;5.66;100.00;99787.78;5082553;28;20028;-85
2021/12/30 08:33:38;;;;;;;64.18;9.88;;;;;;;5.71;100.00;99795.09;5075926;28;20077;-87
2021/12/30 08:36:03;;;;;;;86.65;15.85;;;;;;;5.74;100.00;99798.09;5084615;28;20035;-89
2021/12/30 08:38:29;;;;;;;77.03;13.65;;;;;;;5.76;100.00;99797.81;5086377;28;20036;-86
2021/12/30 08:40:54;;;;;;;72.93;13.50;;;;;;;5.78;100.00;99785.66;5086337;28;20032;-86
2021/12/30 08:43:19;;;;;;;76.15;13.25;;;;;;;5.79;100.00;99792.69;5089612;28;20020;-87
2021/12/30 08:45:45;;;;;;;54.70;9.85;;;;;;;5.78;100.00;99815.41;5088601;28;20035;-88
2021/12/30 08:48:11;;;;;;;75.97;13.48;;;;;;;5.78;100.00;99806.47;5068446;28;20061;-87
2021/12/30 08:50:36;;;;;;;82.13;13.27;;;;;;;5.75;100.00;99807.81;5052559;28;20060;-86
2021/12/30 08:53:01;;;;;;;92.20;15.88;;;;;;;5.72;100.00;99811.03;5053620;28;20388;-88
2021/12/30 08:55:27;;;;;;;93.88;15.88;;;;;;;5.70;100.00;99817.78;5052311;28;20035;-85
2021/12/30 08:57:52;;;;;;;86.53;12.55;;;;;;;5.67;100.00;99816.44;5065240;28;20036;-86
2021/12/30 09:00:20;;;;;;;99.28;15.27;;;;;;;5.66;100.00;99822.94;5066812;28;20035;-87
2021/12/30 09:02:45;;;;;;;77.25;12.80;;;;;;;5.64;100.00;99822.38;5085801;28;20027;-86
2021/12/30 09:05:11;;;;;;;80.75;12.35;;;;;;;5.62;100.00;99818.31;5084779;28;20035;-83
2021/12/30 09:07:36;;;;;;;74.13;12.30;;;;;;;5.61;100.00;99831.03;5065070;28;20158;-85
2021/12/30 09:10:06;;;;;;;75.35;11.50;;;;;;;5.63;100.00;99820.75;5067357;28;20028;-81
2021/12/30 09:12:34;;;;;;;70.28;10.20;;;;;;;5.62;100.00;99829.97;5080147;28;20510;-82
2021/12/30 09:15:00;;;;;;;99.45;14.18;;;;;;;5.60;100.00;99820.47;5053439;28;20103;-82
2021/12/30 09:17:25;;;;;;;84.65;12.65;;;;;;;5.56;100.00;99831.84;5064168;28;20093;-82
2021/12/30 09:19:51;;;;;;;86.07;12.00;;;;;;;5.56;100.00;99815.59;5087241;28;20373;-82
2021/12/30 09:22:16;;;;;;;84.38;12.20;;;;;;;5.61;100.00;99819.41;5068285;28;20065;-82
2021/12/30 09:24:42;;;;;;;101.72;14.68;;;;;;;5.60;100.00;99807.78;5052999;28;20784;-82
2021/12/30 09:27:07;;;;;;;89.78;12.70;;;;;;;5.59;100.00;99822.34;5085730;28;20028;-82
2021/12/30 09:29:32;;;;;;;121.28;15.82;;;;;;;5.57;100.00;99832.63;5082696;28;20034;-80
2021/12/30 09:31:58;;;;;;;117.93;14.55;;;;;;;5.54;100.00;99831.28;5053939;28;20031;-80
2021/12/30 09:34:26;;;;;;;111.22;13.52;;;;;;;5.54;100.00;99838.56;5084557;28;20567;-80
2021/12/30 09:36:55;;;;;;;81.72;10.85;;;;;;;5.54;100.00;99849.38;5081740;28;20090;-80
2021/12/30 09:39:20;;;;;;;100.95;13.02;;;;;;;5.51;100.00;99848.03;5083891;28;20372;-80
2021/12/30 09:41:47;;;;;;;91.43;11.20;;;;;;;5.49;100.00;99836.66;5084150;28;20039;-80
2021/12/30 09:44:15;;;;;;;139.88;17.65;;;;;;;5.46;100.00;99844.50;5083814;28;20103;-79
2021/12/30 09:46:40;;;;;;;120.70;14.88;;;;;;;5.42;100.00;99835.25;5085931;28;20035;-80
2021/12/30 09:49:07;;;;;;;152.68;16.30;;;;;;;5.41;100.00;99839.06;5083137;28;20085;-80
2021/12/30 09:51:33;;;;;;;150.60;18.33;;;;;;;5.40;100.00;99834.69;5084065;28;20027;-79
2021/12/30 09:54:00;;;;;;;163.40;18.00;;;;;;;5.40;100.00;99842.81;5064559;28;20486;-79
2021/12/30 09:56:28;;;;;;;151.68;16.67;;;;;;;5.43;100.00;99847.69;5048755;28;20031;-79
2021/12/30 09:58:53;;;;;;;150.70;18.33;;;;;;;5.45;100.00;99840.13;5067411;28;20068;-78
2021/12/30 10:01:19;;;;;;;163.35;18.95;;;;;;;5.46;100.00;99831.78;5060162;28;21926;-79
2021/12/30 10:03:46;;;;;;;175.35;20.98;;;;;;;5.47;100.00;99827.19;5061751;28;20090;-79
2021/12/30 10:06:13;;;;;;;206.32;23.08;;;;;;;5.46;100.00;99844.50;5064772;28;20282;-80
2021/12/30 10:08:43;;;;;;;195.40;20.08;;;;;;;5.43;100.00;99836.88;5064860;28;20051;-79
2021/12/30 10:11:13;;;;;;;210.80;21.25;;;;;;;5.41;100.00;99844.47;5080553;28;20024;-79
2021/12/30 10:13:41;;;;;;;137.95;16.00;;;;;;;5.41;100.00;99839.06;5084240;28;20035;-79
2021/12/30 10:16:16;;;;;;;161.93;18.00;;;;;;;5.41;100.00;99844.47;5064331;28;20024;-81
2021/12/30 10:18:51;;;;;;;154.27;17.67;;;;;;;5.41;100.00;99845.25;5084316;28;20028;-79
2021/12/30 10:21:26;;;;;;;139.45;19.45;;;;;;;5.42;100.00;99844.19;5081368;28;20107;-80
2021/12/30 10:23:54;;;;;;;131.70;16.60;;;;;;;5.45;100.00;99853.66;5062359;28;20027;-80
2021/12/30 10:26:20;;;;;;;79.70;11.82;;;;;;;5.47;100.00;99859.63;5064659;28;20024;-80
2021/12/30 10:28:46;;;;;;;94.18;15.68;;;;;;;5.53;100.00;99861.25;5081719;28;20028;-80
2021/12/30 10:31:38;;;;;;;79.45;12.80;;;;;;;5.63;100.00;99852.41;5050486;28;20027;-80
2021/12/30 10:34:05;;;;;;;116.50;16.67;;;;;;;5.67;100.00;99853.47;5077268;28;20032;-80
2021/12/30 10:36:32;;;;;;;93.13;14.23;;;;;;;5.69;100.00;99852.16;5083413;28;20300;-80
2021/12/30 10:39:34;;;;;;;119.32;16.92;;;;;;;5.67;100.00;99853.47;5082379;28;20054;-80
2021/12/30 10:42:05;;;;;;;123.05;17.50;;;;;;;5.68;100.00;99861.34;5084931;28;20035;-79
2021/12/30 10:44:47;;;;;;;99.20;14.73;;;;;;;5.74;100.00;99852.16;5082852;28;20124;-82
2021/12/30 10:47:15;;;;;;;99.82;14.52;;;;;;;5.77;100.00;99842.72;5064905;28;20017;-81
2021/12/30 10:49:40;;;;;;;106.13;14.68;;;;;;;5.72;100.00;99835.38;5081508;28;20020;-80
2021/12/30 10:52:05;;;;;;;118.90;15.93;;;;;;;5.71;100.00;99835.66;5062591;28;20031;-81
2021/12/30 10:54:33;;;;;;;119.32;16.52;;;;;;;5.71;100.00;99850.00;5080868;28;20559;-76
2021/12/30 10:57:00;;;;;;;131.70;16.70;;;;;;;5.71;100.00;99833.78;5081333;28;20133;-77
2021/12/30 10:59:31;;;;;;;110.38;14.85;;;;;;;5.69;100.00;99819.69;5081828;28;20067;-77
2021/12/30 11:02:21;;;;;;;100.10;16.08;;;;;;;5.68;100.00;99812.66;5079831;28;20058;-77
2021/12/30 11:04:49;;;;;;;93.45;14.05;;;;;;;5.67;100.00;99837.25;5063218;28;20028;-76
2021/12/30 11:07:19;;;;;;;107.10;14.07;;;;;;;5.64;100.00;99818.88;5081458;28;20070;-77
2021/12/30 11:09:46;;;;;;;74.13;11.93;;;;;;;5.62;100.00;99840.78;5082585;28;20502;-76
2021/12/30 11:12:14;;;;;;;82.43;12.18;;;;;;;5.62;100.00;99824.56;5082876;28;20032;-76